createdAt,value
2022-09-01T00:00:31.391Z,0.00
2022-09-01T00:01:31.378Z,0.00
2022-09-01T00:02:31.403Z,0.00
2022-09-01T00:03:31.351Z,0.00
2022-09-01T00:04:31.392Z,0.00
2022-09-01T00:05:31.347Z,0.00
2022-09-01T00:06:31.319Z,0.00
2022-09-01T00:07:31.303Z,0.00
2022-09-01T00:08:31.314Z,0.00
2022-09-01T00:09:31.280Z,0.00
2022-09-01T00:10:31.274Z,0.00
2022-09-01T00:11:31.259Z,0.00
2022-09-01T00:12:31.244Z,0.00
2022-09-01T00:13:31.236Z,0.00
2022-09-01T00:14:31.232Z,0.00
2022-09-01T00:15:31.255Z,0.00
2022-09-01T00:16:31.197Z,0.00
2022-09-01T00:17:31.204Z,0.00
2022-09-01T00:18:31.183Z,0.00
2022-09-01T00:19:31.158Z,0.00
2022-09-01T00:20:31.181Z,0.00
2022-09-01T00:21:31.149Z,0.00
2022-09-01T00:22:31.131Z,0.00
2022-09-01T00:23:31.132Z,0.00
2022-09-01T00:24:31.102Z,0.00
2022-09-01T00:25:31.107Z,0.00
2022-09-01T00:26:31.067Z,0.00
2022-09-01T00:27:31.205Z,0.00
2022-09-01T00:28:31.054Z,0.00
2022-09-01T00:29:31.046Z,0.00
2022-09-01T00:30:31.036Z,0.00
2022-09-01T00:31:31.054Z,0.00
2022-09-01T00:32:31.009Z,0.00
2022-09-01T00:33:31.004Z,0.00
2022-09-01T00:34:30.990Z,0.00
2022-09-01T00:35:30.986Z,0.00
2022-09-01T00:36:31.961Z,0.00
2022-09-01T00:37:30.946Z,0.00
2022-09-01T00:38:30.929Z,0.00
2022-09-01T00:39:30.930Z,0.00
2022-09-01T00:40:30.970Z,0.00
2022-09-01T00:41:30.912Z,0.00
2022-09-01T00:42:30.890Z,0.00
2022-09-01T00:43:30.883Z,0.00
2022-09-01T00:44:31.321Z,0.00
2022-09-01T00:45:30.870Z,0.00
2022-09-01T00:46:30.933Z,0.00
2022-09-01T00:47:30.841Z,0.00
2022-09-01T00:48:30.821Z,0.00
2022-09-01T00:49:31.506Z,0.00
2022-09-01T00:50:30.818Z,0.00
2022-09-01T00:51:30.786Z,0.00
2022-09-01T00:52:30.773Z,0.00
2022-09-01T00:53:30.764Z,0.00
2022-09-01T00:54:30.762Z,0.00
2022-09-01T00:55:30.763Z,0.00
2022-09-01T00:56:30.731Z,0.00
2022-09-01T00:57:30.711Z,0.00
2022-09-01T00:58:30.710Z,0.00
2022-09-01T00:59:30.696Z,0.00
2022-09-01T01:00:30.701Z,0.00
2022-09-01T01:01:30.750Z,0.00
2022-09-01T01:02:30.667Z,0.00
2022-09-01T01:03:30.655Z,0.00
2022-09-01T01:04:30.645Z,0.00
2022-09-01T01:05:30.629Z,0.00
2022-09-01T01:06:30.834Z,0.00
2022-09-01T01:07:30.604Z,0.00
2022-09-01T01:08:30.584Z,0.00
2022-09-01T01:09:30.586Z,0.00
2022-09-01T01:10:30.565Z,0.00
2022-09-01T01:11:30.575Z,0.00
2022-09-01T01:12:30.547Z,0.00
2022-09-01T01:13:30.544Z,0.00
2022-09-01T01:14:30.515Z,0.00
2022-09-01T01:15:30.518Z,0.00
2022-09-01T01:16:30.553Z,0.00
2022-09-01T01:17:30.485Z,0.00
2022-09-01T01:18:30.474Z,0.00
2022-09-01T01:19:30.486Z,0.00
2022-09-01T01:20:31.447Z,0.00
2022-09-01T01:21:31.396Z,0.00
2022-09-01T01:22:30.424Z,0.00
2022-09-01T01:23:30.421Z,0.00
2022-09-01T01:24:30.406Z,0.00
2022-09-01T01:25:30.441Z,0.00
2022-09-01T01:26:30.385Z,0.00
2022-09-01T01:27:30.391Z,0.00
2022-09-01T01:28:30.359Z,0.00
2022-09-01T01:29:30.357Z,0.00
2022-09-01T01:30:30.369Z,0.00
2022-09-01T01:31:30.330Z,0.00
2022-09-01T01:32:30.326Z,0.00
2022-09-01T01:33:30.304Z,0.00
2022-09-01T01:34:30.280Z,0.00
2022-09-01T01:35:30.279Z,0.00
2022-09-01T01:36:30.272Z,0.00
2022-09-01T01:37:30.253Z,0.00
2022-09-01T01:38:30.267Z,0.00
2022-09-01T01:39:30.229Z,0.00
2022-09-01T01:40:30.312Z,0.00
2022-09-01T01:41:30.206Z,0.00
2022-09-01T01:42:30.194Z,0.00
2022-09-01T01:43:30.190Z,0.00
2022-09-01T01:44:30.189Z,0.00
2022-09-01T01:45:30.159Z,0.00
2022-09-01T01:46:30.212Z,0.00
2022-09-01T01:47:30.144Z,0.00
2022-09-01T01:48:30.120Z,0.00
2022-09-01T01:49:30.129Z,0.00
2022-09-01T01:50:30.101Z,0.00
2022-09-01T01:51:30.090Z,0.00
2022-09-01T01:52:30.078Z,0.00
2022-09-01T01:53:30.076Z,0.00
2022-09-01T01:54:30.060Z,0.00
2022-09-01T01:55:30.053Z,0.00
2022-09-01T01:56:30.035Z,0.00
2022-09-01T01:57:30.020Z,0.00
2022-09-01T01:58:30.000Z,0.00
2022-09-01T01:59:29.996Z,0.00
2022-09-01T02:00:30.376Z,0.00
2022-09-01T02:01:30.019Z,0.00
2022-09-01T02:02:30.062Z,0.00
2022-09-01T02:03:29.951Z,0.00
2022-09-01T02:04:29.935Z,0.00
2022-09-01T02:05:29.942Z,0.00
2022-09-01T02:06:29.916Z,0.00
2022-09-01T02:07:31.515Z,0.00
2022-09-01T02:08:29.889Z,0.00
2022-09-01T02:09:29.883Z,0.00
2022-09-01T02:10:29.884Z,0.00
2022-09-01T02:11:29.854Z,0.00
2022-09-01T02:12:29.839Z,0.00
2022-09-01T02:13:29.841Z,0.00
2022-09-01T02:14:29.817Z,0.00
2022-09-01T02:15:29.825Z,0.00
2022-09-01T02:16:29.908Z,0.00
2022-09-01T02:17:29.785Z,0.00
2022-09-01T02:18:29.763Z,0.00
2022-09-01T02:19:29.763Z,0.00
2022-09-01T02:20:29.769Z,0.00
2022-09-01T02:21:29.735Z,0.00
2022-09-01T02:22:29.723Z,0.00
2022-09-01T02:23:29.716Z,0.00
2022-09-01T02:24:29.701Z,0.00
2022-09-01T02:25:29.711Z,0.00
2022-09-01T02:26:29.680Z,0.00
2022-09-01T02:27:29.678Z,0.00
2022-09-01T02:28:29.658Z,0.00
2022-09-01T02:29:29.648Z,0.00
2022-09-01T02:30:29.685Z,0.00
2022-09-01T02:31:29.626Z,0.00
2022-09-01T02:32:29.606Z,0.00
2022-09-01T02:33:29.603Z,0.00
2022-09-01T02:34:29.575Z,0.00
2022-09-01T02:35:29.587Z,0.00
2022-09-01T02:36:29.565Z,0.00
2022-09-01T02:37:29.553Z,0.00
2022-09-01T02:38:29.538Z,0.00
2022-09-01T02:39:29.537Z,0.00
2022-09-01T02:40:29.542Z,0.00
2022-09-01T02:41:29.558Z,0.00
2022-09-01T02:42:29.488Z,0.00
2022-09-01T02:43:29.485Z,0.00
2022-09-01T02:44:29.460Z,0.00
2022-09-01T02:45:29.468Z,0.00
2022-09-01T02:46:29.448Z,0.00
2022-09-01T02:47:29.735Z,0.00
2022-09-01T02:48:29.425Z,0.00
2022-09-01T02:49:29.416Z,0.00
2022-09-01T02:50:29.402Z,0.00
2022-09-01T02:51:29.419Z,0.00
2022-09-01T02:52:29.374Z,0.00
2022-09-01T02:53:29.358Z,0.00
2022-09-01T02:54:29.350Z,0.00
2022-09-01T02:55:29.330Z,0.00
2022-09-01T02:56:29.327Z,0.00
2022-09-01T02:57:29.330Z,0.00
2022-09-01T02:58:29.301Z,0.00
2022-09-01T02:59:29.279Z,0.00
2022-09-01T03:00:29.271Z,0.00
2022-09-01T03:01:29.779Z,0.00
2022-09-01T03:02:29.248Z,0.00
2022-09-01T03:03:29.259Z,0.00
2022-09-01T03:04:29.272Z,0.00
2022-09-01T03:05:29.225Z,0.00
2022-09-01T03:06:29.207Z,0.00
2022-09-01T03:07:29.199Z,0.00
2022-09-01T03:08:29.193Z,0.00
2022-09-01T03:09:29.181Z,0.00
2022-09-01T03:10:29.161Z,0.00
2022-09-01T03:11:29.151Z,0.00
2022-09-01T03:12:29.151Z,0.00
2022-09-01T03:13:29.141Z,0.00
2022-09-01T03:14:29.118Z,0.00
2022-09-01T03:15:29.098Z,0.00
2022-09-01T03:16:29.134Z,0.00
2022-09-01T03:17:29.075Z,0.00
2022-09-01T03:18:29.083Z,0.00
2022-09-01T03:19:29.054Z,0.00
2022-09-01T03:20:29.044Z,0.00
2022-09-01T03:21:29.028Z,0.00
2022-09-01T03:22:29.022Z,0.00
2022-09-01T03:23:29.024Z,0.00
2022-09-01T03:24:28.992Z,0.00
2022-09-01T03:25:28.988Z,0.00
2022-09-01T03:26:28.970Z,0.00
2022-09-01T03:27:28.962Z,0.00
2022-09-01T03:28:28.965Z,0.00
2022-09-01T03:29:28.930Z,0.00
2022-09-01T03:30:28.922Z,0.00
2022-09-01T03:31:30.968Z,0.00
2022-09-01T03:32:28.894Z,0.00
2022-09-01T03:33:28.904Z,0.00
2022-09-01T03:34:28.874Z,0.00
2022-09-01T03:35:28.857Z,0.00
2022-09-01T03:36:28.855Z,0.00
2022-09-01T03:37:28.834Z,0.00
2022-09-01T03:38:28.848Z,0.00
2022-09-01T03:39:28.814Z,0.00
2022-09-01T03:40:28.832Z,0.00
2022-09-01T03:41:28.792Z,0.00
2022-09-01T03:42:28.784Z,0.00
2022-09-01T03:43:34.525Z,0.00
2022-09-01T03:44:29.765Z,0.00
2022-09-01T03:45:28.798Z,0.00
2022-09-01T03:46:31.050Z,0.00
2022-09-01T03:47:28.729Z,0.00
2022-09-01T03:48:28.717Z,0.00
2022-09-01T03:49:28.754Z,0.00
2022-09-01T03:50:28.691Z,0.00
2022-09-01T03:51:28.677Z,0.00
2022-09-01T03:52:28.666Z,0.00
2022-09-01T03:53:28.657Z,0.00
2022-09-01T03:54:28.669Z,0.00
2022-09-01T03:55:28.618Z,0.00
2022-09-01T03:56:28.627Z,0.00
2022-09-01T03:57:28.607Z,0.00
2022-09-01T03:58:28.594Z,0.00
2022-09-01T03:59:28.597Z,0.00
2022-09-01T04:00:28.578Z,0.00
2022-09-01T04:01:28.675Z,0.00
2022-09-01T04:02:28.601Z,0.00
2022-09-01T04:03:31.040Z,0.00
2022-09-01T04:04:28.552Z,0.00
2022-09-01T04:05:28.509Z,0.00
2022-09-01T04:06:28.497Z,0.00
2022-09-01T04:07:28.488Z,0.00
2022-09-01T04:08:32.339Z,0.00
2022-09-01T04:09:28.481Z,0.00
2022-09-01T04:10:28.461Z,0.00
2022-09-01T04:11:28.452Z,0.00
2022-09-01T04:12:28.466Z,0.00
2022-09-01T04:13:28.420Z,0.00
2022-09-01T04:14:29.234Z,0.00
2022-09-01T04:15:28.388Z,0.00
2022-09-01T04:16:28.411Z,4.00
2022-09-01T04:17:30.559Z,0.00
2022-09-01T04:18:28.361Z,0.00
2022-09-01T04:19:28.372Z,4.00
2022-09-01T04:20:28.352Z,4.00
2022-09-01T04:21:28.319Z,4.00
2022-09-01T04:22:28.322Z,4.00
2022-09-01T04:23:28.310Z,4.00
2022-09-01T04:24:28.427Z,8.00
2022-09-01T04:25:28.283Z,8.00
2022-09-01T04:26:28.270Z,8.00
2022-09-01T04:27:28.262Z,8.00
2022-09-01T04:28:28.244Z,8.00
2022-09-01T04:29:28.239Z,12.00
2022-09-01T04:30:28.247Z,12.00
2022-09-01T04:31:28.232Z,12.00
2022-09-01T04:32:28.214Z,16.00
2022-09-01T04:33:28.185Z,20.00
2022-09-01T04:34:28.183Z,20.00
2022-09-01T04:35:28.181Z,24.00
2022-09-01T04:36:28.156Z,24.00
2022-09-01T04:37:28.143Z,28.00
2022-09-01T04:38:28.134Z,28.00
2022-09-01T04:39:28.127Z,32.00
2022-09-01T04:40:28.167Z,36.00
2022-09-01T04:41:28.088Z,40.00
2022-09-01T04:42:28.082Z,44.00
2022-09-01T04:43:28.082Z,52.00
2022-09-01T04:44:28.063Z,52.00
2022-09-01T04:45:28.112Z,60.00
2022-09-01T04:46:28.046Z,64.00
2022-09-01T04:47:28.025Z,68.00
2022-09-01T04:48:28.014Z,76.00
2022-09-01T04:49:28.001Z,84.00
2022-09-01T04:50:28.014Z,88.00
2022-09-01T04:51:27.979Z,96.00
2022-09-01T04:52:27.972Z,104.00
2022-09-01T04:53:28.578Z,116.00
2022-09-01T04:54:27.946Z,124.00
2022-09-01T04:55:27.947Z,132.00
2022-09-01T04:56:27.923Z,136.00
2022-09-01T04:57:27.907Z,148.00
2022-09-01T04:58:27.903Z,156.00
2022-09-01T04:59:27.893Z,168.00
2022-09-01T05:00:27.889Z,176.00
2022-09-01T05:01:27.918Z,188.00
2022-09-01T05:02:27.888Z,200.00
2022-09-01T05:03:27.836Z,212.00
2022-09-01T05:04:27.828Z,220.00
2022-09-01T05:05:27.815Z,232.00
2022-09-01T05:06:27.821Z,240.00
2022-09-01T05:07:27.798Z,252.00
2022-09-01T05:08:27.783Z,264.00
2022-09-01T05:09:27.775Z,276.00
2022-09-01T05:10:27.769Z,288.00
2022-09-01T05:11:27.776Z,304.00
2022-09-01T05:12:27.736Z,320.00
2022-09-01T05:13:27.729Z,332.00
2022-09-01T05:14:27.715Z,344.00
2022-09-01T05:15:27.689Z,356.00
2022-09-01T05:16:27.762Z,364.00
2022-09-01T05:17:27.688Z,376.00
2022-09-01T05:18:27.668Z,392.00
2022-09-01T05:19:27.656Z,400.00
2022-09-01T05:20:27.641Z,412.00
2022-09-01T05:21:27.634Z,424.00
2022-09-01T05:22:27.630Z,436.00
2022-09-01T05:23:27.608Z,448.00
2022-09-01T05:24:27.594Z,456.00
2022-09-01T05:25:27.579Z,468.00
2022-09-01T05:26:27.578Z,480.00
2022-09-01T05:27:27.560Z,492.00
2022-09-01T05:28:27.546Z,504.00
2022-09-01T05:29:27.533Z,516.00
2022-09-01T05:30:27.524Z,524.00
2022-09-01T05:31:27.563Z,532.00
2022-09-01T05:32:27.505Z,544.00
2022-09-01T05:33:27.490Z,556.00
2022-09-01T05:34:27.498Z,564.00
2022-09-01T05:35:31.639Z,576.00
2022-09-01T05:36:28.467Z,580.00
2022-09-01T05:37:27.431Z,592.00
2022-09-01T05:38:27.437Z,584.00
2022-09-01T05:39:27.418Z,596.00
2022-09-01T05:40:27.481Z,608.00
2022-09-01T05:41:27.408Z,620.00
2022-09-01T05:42:27.383Z,628.00
2022-09-01T05:43:27.376Z,640.00
2022-09-01T05:44:27.370Z,652.00
2022-09-01T05:45:27.352Z,664.00
2022-09-01T05:46:27.381Z,676.00
2022-09-01T05:47:27.340Z,688.00
2022-09-01T05:48:27.315Z,696.00
2022-09-01T05:49:27.304Z,708.00
2022-09-01T05:50:27.285Z,716.00
2022-09-01T05:51:43.896Z,728.00
2022-09-01T05:52:28.292Z,740.00
2022-09-01T05:53:27.242Z,748.00
2022-09-01T05:54:27.251Z,756.00
2022-09-01T05:55:27.245Z,764.00
2022-09-01T05:56:27.221Z,776.00
2022-09-01T05:57:35.246Z,784.00
2022-09-01T05:59:22.419Z,796.00
2022-09-01T05:59:28.195Z,800.00
2022-09-01T06:00:27.176Z,812.00
2022-09-01T06:01:27.196Z,820.00
2022-09-01T06:02:27.560Z,828.00
2022-09-01T06:03:27.190Z,840.00
2022-09-01T06:04:27.136Z,848.00
2022-09-01T06:05:27.116Z,860.00
2022-09-01T06:06:27.106Z,872.00
2022-09-01T06:07:27.114Z,884.00
2022-09-01T06:08:27.084Z,896.00
2022-09-01T06:09:27.065Z,912.00
2022-09-01T06:10:27.130Z,920.00
2022-09-01T06:11:27.055Z,940.00
2022-09-01T06:12:27.076Z,956.00
2022-09-01T06:13:27.438Z,1040.00
2022-09-01T06:14:27.012Z,1304.00
2022-09-01T06:15:27.002Z,1704.00
2022-09-01T06:16:27.024Z,2100.00
2022-09-01T06:17:26.990Z,2472.00
2022-09-01T06:18:26.970Z,2840.00
2022-09-01T06:19:26.956Z,3184.00
2022-09-01T06:20:26.960Z,3512.00
2022-09-01T06:21:26.923Z,3900.00
2022-09-01T06:22:26.918Z,4244.00
2022-09-01T06:23:26.938Z,4460.00
2022-09-01T06:24:26.908Z,5112.00
2022-09-01T06:25:26.880Z,6284.00
2022-09-01T06:26:26.866Z,7108.00
2022-09-01T06:27:26.855Z,7240.00
2022-09-01T06:28:26.858Z,7316.00
2022-09-01T06:29:26.836Z,7464.00
2022-09-01T06:30:26.905Z,7572.00
2022-09-01T06:31:26.839Z,7672.00
2022-09-01T06:32:26.798Z,7756.00
2022-09-01T06:33:26.807Z,7800.00
2022-09-01T06:34:26.778Z,7824.00
2022-09-01T06:35:26.762Z,7896.00
2022-09-01T06:36:26.749Z,7992.00
2022-09-01T06:37:26.741Z,8032.00
2022-09-01T06:38:26.741Z,8016.00
2022-09-01T06:39:26.714Z,8052.00
2022-09-01T06:40:26.900Z,8064.00
2022-09-01T06:41:26.718Z,8128.00
2022-09-01T06:42:26.687Z,8180.00
2022-09-01T06:43:26.659Z,8224.00
2022-09-01T06:44:26.663Z,8284.00
2022-09-01T06:45:26.688Z,8332.00
2022-09-01T06:46:26.710Z,8372.00
2022-09-01T06:47:26.630Z,8412.00
2022-09-01T06:48:26.653Z,8432.00
2022-09-01T06:49:26.594Z,8460.00
2022-09-01T06:51:27.571Z,8272.00
2022-09-01T06:52:26.921Z,8180.00
2022-09-01T06:53:34.550Z,7960.00
2022-09-01T06:54:27.547Z,7648.00
2022-09-01T06:55:26.532Z,7376.00
2022-09-01T06:56:26.512Z,7172.00
2022-09-01T06:58:27.498Z,6880.00
2022-09-01T06:59:29.149Z,6768.00
2022-09-01T07:00:26.657Z,6684.00
2022-09-01T07:01:26.587Z,6556.00
2022-09-01T07:03:27.454Z,6312.00
2022-09-01T07:04:26.470Z,6224.00
2022-09-01T07:08:27.429Z,6024.00
2022-09-01T07:09:47.197Z,5948.00
2022-09-01T07:10:27.345Z,5904.00
2022-09-01T07:12:27.805Z,5888.00
2022-09-01T07:13:26.337Z,5904.00
2022-09-01T07:14:26.327Z,5872.00
2022-09-01T07:17:27.290Z,5820.00
2022-09-01T07:18:26.607Z,5780.00
2022-09-01T07:19:48.351Z,5852.00
2022-09-01T07:20:27.619Z,5820.00
2022-09-01T07:22:06.255Z,5668.00
2022-09-01T07:23:27.210Z,5684.00
2022-09-01T07:24:31.632Z,5696.00
2022-09-01T07:26:27.182Z,5584.00
2022-09-01T07:27:26.172Z,5516.00
2022-09-01T07:28:36.129Z,5420.00
2022-09-01T07:29:27.148Z,5324.00
2022-09-01T07:30:26.139Z,5328.00
2022-09-01T07:32:44.257Z,5128.00
2022-09-01T07:33:44.166Z,4972.00
2022-09-01T07:34:46.288Z,4952.00
2022-09-01T07:35:27.094Z,4916.00
2022-09-01T07:36:26.829Z,4812.00
2022-09-01T07:41:44.194Z,6468.00
2022-09-01T07:43:29.647Z,4372.00
2022-09-01T07:44:26.960Z,4200.00
2022-09-01T07:45:26.575Z,4216.00
2022-09-01T07:46:41.316Z,4180.00
2022-09-01T07:49:33.832Z,4124.00
2022-09-01T07:51:35.262Z,4108.00
2022-09-01T07:51:42.358Z,3972.00
2022-09-01T07:52:26.875Z,3840.00
2022-09-01T07:53:25.875Z,3708.00
2022-09-01T07:54:25.856Z,3572.00
2022-09-01T07:55:25.840Z,3524.00
2022-09-01T07:56:25.837Z,3504.00
2022-09-01T07:57:25.865Z,3508.00
2022-09-01T07:58:25.798Z,3512.00
2022-09-01T07:59:25.802Z,3500.00
2022-09-01T08:00:25.833Z,3468.00
2022-09-01T08:01:25.794Z,3484.00
2022-09-01T08:02:25.832Z,3484.00
2022-09-01T08:03:25.771Z,3500.00
2022-09-01T08:04:25.731Z,3524.00
2022-09-01T08:05:25.728Z,3524.00
2022-09-01T08:06:25.716Z,3652.00
2022-09-01T08:07:25.711Z,3708.00
2022-09-01T08:08:29.018Z,3764.00
2022-09-01T08:09:37.147Z,3720.00
2022-09-01T08:10:26.671Z,3836.00
2022-09-01T08:11:58.090Z,3768.00
2022-09-01T08:12:29.663Z,3888.00
2022-09-01T08:13:26.042Z,3720.00
2022-09-01T08:14:25.622Z,3640.00
2022-09-01T08:16:06.292Z,3864.00
2022-09-01T08:16:26.634Z,3656.00
2022-09-01T08:18:26.585Z,3328.00
2022-09-01T08:19:25.566Z,3412.00
2022-09-01T08:20:25.553Z,3264.00
2022-09-01T08:21:25.560Z,3196.00
2022-09-01T08:22:25.636Z,2944.00
2022-09-01T08:23:25.534Z,2940.00
2022-09-01T08:24:25.523Z,2948.00
2022-09-01T08:25:25.494Z,2972.00
2022-09-01T08:26:25.520Z,2932.00
2022-09-01T08:27:25.474Z,2920.00
2022-09-01T08:28:27.058Z,2884.00
2022-09-01T08:29:25.468Z,2860.00
2022-09-01T08:30:25.436Z,2828.00
2022-09-01T08:31:26.179Z,2856.00
2022-09-01T08:32:25.419Z,2824.00
2022-09-01T08:33:25.422Z,2824.00
2022-09-01T08:34:25.416Z,2848.00
2022-09-01T08:35:25.380Z,2848.00
2022-09-01T08:36:26.184Z,2868.00
2022-09-01T08:37:25.359Z,2864.00
2022-09-01T08:38:25.349Z,2864.00
2022-09-01T08:39:25.361Z,2836.00
2022-09-01T08:40:25.379Z,2904.00
2022-09-01T08:41:28.827Z,3036.00
2022-09-01T08:42:26.299Z,3104.00
2022-09-01T08:43:25.293Z,3084.00
2022-09-01T08:44:25.293Z,3048.00
2022-09-01T08:45:25.279Z,2988.00
2022-09-01T08:46:25.298Z,2920.00
2022-09-01T08:47:35.390Z,2880.00
2022-09-01T08:49:16.417Z,2812.00
2022-09-01T08:49:27.381Z,2696.00
2022-09-01T08:50:25.233Z,2600.00
2022-09-01T08:51:25.217Z,2620.00
2022-09-01T08:52:25.535Z,2620.00
2022-09-01T08:53:25.183Z,2628.00
2022-09-01T08:54:29.349Z,2648.00
2022-09-01T08:55:25.182Z,2664.00
2022-09-01T08:56:25.156Z,2652.00
2022-09-01T08:57:25.138Z,2620.00
2022-09-01T08:58:25.114Z,2560.00
2022-09-01T08:59:25.125Z,2532.00
2022-09-01T09:00:25.116Z,2492.00
2022-09-01T09:01:25.181Z,2456.00
2022-09-01T09:02:25.181Z,2492.00
2022-09-01T09:03:25.079Z,2484.00
2022-09-01T09:04:25.058Z,2444.00
2022-09-01T09:05:25.045Z,2392.00
2022-09-01T09:06:25.054Z,2424.00
2022-09-01T09:07:25.029Z,2396.00
2022-09-01T09:08:25.037Z,2352.00
2022-09-01T09:09:32.362Z,2268.00
2022-09-01T09:10:25.978Z,2024.00
2022-09-01T09:11:25.020Z,2292.00
2022-09-01T09:12:24.972Z,2324.00
2022-09-01T09:13:24.958Z,2320.00
2022-09-01T09:14:24.949Z,2316.00
2022-09-01T09:15:24.944Z,2312.00
2022-09-01T09:16:24.984Z,2316.00
2022-09-01T09:17:24.909Z,2292.00
2022-09-01T09:18:39.915Z,2268.00
2022-09-01T09:19:25.881Z,2236.00
2022-09-01T09:20:24.873Z,2224.00
2022-09-01T09:21:24.878Z,2220.00
2022-09-01T09:22:24.858Z,2208.00
2022-09-01T09:23:24.935Z,2200.00
2022-09-01T09:24:24.832Z,2204.00
2022-09-01T09:25:24.821Z,2200.00
2022-09-01T09:26:24.847Z,2192.00
2022-09-01T09:27:25.252Z,2180.00
2022-09-01T09:28:25.786Z,2164.00
2022-09-01T09:29:24.773Z,2132.00
2022-09-01T09:30:26.373Z,2128.00
2022-09-01T09:31:24.800Z,2128.00
2022-09-01T09:32:39.403Z,2164.00
2022-09-01T09:33:47.828Z,2176.00
2022-09-01T09:34:25.722Z,2176.00
2022-09-01T09:35:24.692Z,2148.00
2022-09-01T09:36:25.431Z,2160.00
2022-09-01T09:37:24.678Z,2184.00
2022-09-01T09:38:24.678Z,2132.00
2022-09-01T09:39:24.646Z,2152.00
2022-09-01T09:40:25.325Z,1296.00
2022-09-01T09:41:27.193Z,2184.00
2022-09-01T09:42:25.038Z,2208.00
2022-09-01T09:43:25.656Z,2240.00
2022-09-01T09:44:24.590Z,2268.00
2022-09-01T09:45:24.583Z,2288.00
2022-09-01T09:46:25.344Z,2148.00
2022-09-01T09:47:42.652Z,2204.00
2022-09-01T09:48:25.567Z,1464.00
2022-09-01T09:49:34.497Z,1388.00
2022-09-01T09:50:25.518Z,1428.00
2022-09-01T09:51:24.519Z,1932.00
2022-09-01T09:52:24.504Z,2296.00
2022-09-01T09:53:24.489Z,2324.00
2022-09-01T09:54:24.514Z,2248.00
2022-09-01T09:55:24.490Z,1544.00
2022-09-01T09:56:24.507Z,1504.00
2022-09-01T09:57:24.494Z,1520.00
2022-09-01T09:58:24.462Z,1556.00
2022-09-01T09:59:45.836Z,1620.00
2022-09-01T10:00:25.950Z,1628.00
2022-09-01T10:01:24.662Z,1572.00
2022-09-01T10:02:27.740Z,1584.00
2022-09-01T10:03:29.099Z,2376.00
2022-09-01T10:04:24.428Z,2356.00
2022-09-01T10:05:24.392Z,1652.00
2022-09-01T10:06:24.399Z,1772.00
2022-09-01T10:07:24.363Z,1528.00
2022-09-01T10:08:24.383Z,2156.00
2022-09-01T10:09:24.386Z,1476.00
2022-09-01T10:10:24.339Z,1416.00
2022-09-01T10:11:24.327Z,1408.00
2022-09-01T10:12:24.321Z,1420.00
2022-09-01T10:13:24.281Z,1460.00
2022-09-01T10:14:35.509Z,1436.00
2022-09-01T10:15:25.235Z,1388.00
2022-09-01T10:16:24.904Z,1404.00
2022-09-01T10:17:24.611Z,1488.00
2022-09-01T10:18:31.262Z,1560.00
2022-09-01T10:19:25.198Z,1540.00
2022-09-01T10:20:24.185Z,1580.00
2022-09-01T10:21:24.202Z,1576.00
2022-09-01T10:22:24.157Z,1568.00
2022-09-01T10:23:24.674Z,1560.00
2022-09-01T10:24:27.078Z,2092.00
2022-09-01T10:25:25.127Z,2176.00
2022-09-01T10:26:24.135Z,1592.00
2022-09-01T10:27:24.139Z,2100.00
2022-09-01T10:28:24.514Z,2096.00
2022-09-01T10:29:24.084Z,2132.00
2022-09-01T10:30:24.075Z,2104.00
2022-09-01T10:31:29.220Z,2096.00
2022-09-01T10:32:37.911Z,2112.00
2022-09-01T10:33:25.044Z,2016.00
2022-09-01T10:34:24.019Z,2024.00
2022-09-01T10:35:24.019Z,1652.00
2022-09-01T10:36:24.487Z,1472.00
2022-09-01T10:37:23.990Z,1680.00
2022-09-01T10:38:23.982Z,2056.00
2022-09-01T10:39:28.332Z,1604.00
2022-09-01T10:40:30.378Z,1600.00
2022-09-01T10:41:24.984Z,1920.00
2022-09-01T10:42:23.943Z,1900.00
2022-09-01T10:43:23.922Z,1820.00
2022-09-01T10:44:23.906Z,1732.00
2022-09-01T10:45:23.896Z,1724.00
2022-09-01T10:46:26.213Z,1680.00
2022-09-01T10:47:23.909Z,1660.00
2022-09-01T10:48:32.504Z,1640.00
2022-09-01T10:49:27.573Z,1588.00
2022-09-01T10:50:23.842Z,1344.00
2022-09-01T10:51:29.700Z,1128.00
2022-09-01T10:52:28.482Z,1136.00
2022-09-01T10:53:26.970Z,1168.00
2022-09-01T10:54:23.796Z,1196.00
2022-09-01T10:55:25.416Z,1628.00
2022-09-01T10:56:28.732Z,1708.00
2022-09-01T10:57:27.673Z,1312.00
2022-09-01T10:59:34.752Z,1264.00
2022-09-01T11:00:40.384Z,1204.00
2022-09-01T11:01:47.277Z,1196.00
2022-09-01T11:02:29.521Z,1200.00
2022-09-01T11:03:32.783Z,1228.00
2022-09-01T11:04:24.741Z,1256.00
2022-09-01T11:05:23.674Z,1236.00
2022-09-01T11:06:23.661Z,1304.00
2022-09-01T11:07:38.893Z,1176.00
2022-09-01T11:08:24.644Z,1188.00
2022-09-01T11:09:23.650Z,1092.00
2022-09-01T11:10:32.396Z,1060.00
2022-09-01T11:11:24.610Z,1140.00
2022-09-01T11:12:29.861Z,1240.00
2022-09-01T11:13:24.575Z,1264.00
2022-09-01T11:14:23.566Z,1452.00
2022-09-01T11:15:23.572Z,1572.00
2022-09-01T11:16:45.803Z,1572.00
2022-09-01T11:17:24.565Z,1556.00
2022-09-01T11:18:23.776Z,1536.00
2022-09-01T11:19:23.529Z,1592.00
2022-09-01T11:20:23.501Z,1604.00
2022-09-01T11:21:23.920Z,1568.00
2022-09-01T11:22:23.492Z,1516.00
2022-09-01T11:23:23.463Z,1540.00
2022-09-01T11:24:23.456Z,1556.00
2022-09-01T11:25:23.464Z,1520.00
2022-09-01T11:26:23.429Z,1444.00
2022-09-01T11:27:23.412Z,1080.00
2022-09-01T11:28:23.403Z,1072.00
2022-09-01T11:29:23.397Z,1080.00
2022-09-01T11:30:23.383Z,1116.00
2022-09-01T11:31:23.404Z,1420.00
2022-09-01T11:32:23.347Z,1412.00
2022-09-01T11:33:23.338Z,1476.00
2022-09-01T11:34:23.331Z,1480.00
2022-09-01T11:35:23.327Z,1168.00
2022-09-01T11:36:23.335Z,1068.00
2022-09-01T11:37:23.296Z,1036.00
2022-09-01T11:38:23.283Z,1056.00
2022-09-01T11:39:23.274Z,1176.00
2022-09-01T11:40:23.327Z,948.00
2022-09-01T11:41:23.242Z,940.00
2022-09-01T11:42:23.255Z,956.00
2022-09-01T11:43:23.246Z,968.00
2022-09-01T11:44:23.219Z,940.00
2022-09-01T11:45:23.209Z,924.00
2022-09-01T11:46:23.245Z,1080.00
2022-09-01T11:47:23.199Z,1228.00
2022-09-01T11:48:23.167Z,1252.00
2022-09-01T11:49:23.159Z,1276.00
2022-09-01T11:50:23.147Z,1292.00
2022-09-01T11:51:23.147Z,1312.00
2022-09-01T11:52:23.139Z,1316.00
2022-09-01T11:53:23.120Z,1324.00
2022-09-01T11:54:23.107Z,1332.00
2022-09-01T11:55:23.080Z,1324.00
2022-09-01T11:56:23.080Z,1304.00
2022-09-01T11:57:23.078Z,1088.00
2022-09-01T11:58:23.049Z,1144.00
2022-09-01T11:59:23.044Z,1180.00
2022-09-01T12:00:23.050Z,1276.00
2022-09-01T12:01:23.010Z,1448.00
2022-09-01T12:02:23.266Z,1456.00
2022-09-01T12:03:23.459Z,1460.00
2022-09-01T12:04:22.991Z,1456.00
2022-09-01T12:05:22.966Z,1404.00
2022-09-01T12:06:22.963Z,1400.00
2022-09-01T12:07:22.964Z,1408.00
2022-09-01T12:08:24.059Z,1412.00
2022-09-01T12:09:22.913Z,1436.00
2022-09-01T12:10:22.903Z,1268.00
2022-09-01T12:11:22.904Z,1104.00
2022-09-01T12:12:22.882Z,1072.00
2022-09-01T12:13:22.929Z,1028.00
2022-09-01T12:14:22.885Z,1040.00
2022-09-01T12:15:22.853Z,1088.00
2022-09-01T12:16:22.891Z,1284.00
2022-09-01T12:17:22.826Z,1292.00
2022-09-01T12:18:22.829Z,1272.00
2022-09-01T12:19:22.796Z,1244.00
2022-09-01T12:20:26.801Z,1228.00
2022-09-01T12:21:23.785Z,1240.00
2022-09-01T12:22:22.765Z,1276.00
2022-09-01T12:23:22.900Z,1268.00
2022-09-01T12:24:22.741Z,1252.00
2022-09-01T12:25:22.737Z,1048.00
2022-09-01T12:26:22.726Z,1004.00
2022-09-01T12:27:22.705Z,988.00
2022-09-01T12:28:22.716Z,976.00
2022-09-01T12:29:22.688Z,972.00
2022-09-01T12:30:22.680Z,996.00
2022-09-01T12:31:22.735Z,984.00
2022-09-01T12:32:22.649Z,968.00
2022-09-01T12:33:24.205Z,956.00
2022-09-01T12:34:22.632Z,976.00
2022-09-01T12:35:22.619Z,940.00
2022-09-01T12:36:22.618Z,920.00
2022-09-01T12:37:22.591Z,944.00
2022-09-01T12:38:22.769Z,972.00
2022-09-01T12:39:22.571Z,1092.00
2022-09-01T12:40:22.612Z,1116.00
2022-09-01T12:42:22.533Z,1072.00
2022-09-01T12:43:22.524Z,1032.00
2022-09-01T12:44:22.532Z,1020.00
2022-09-01T12:45:22.499Z,1032.00
2022-09-01T12:46:22.492Z,1048.00
2022-09-01T12:47:22.474Z,1048.00
2022-09-01T12:48:22.464Z,1072.00
2022-09-01T12:49:22.473Z,1056.00
2022-09-01T12:50:22.443Z,1008.00
2022-09-01T12:51:26.563Z,972.00
2022-09-01T12:52:23.412Z,952.00
2022-09-01T12:53:22.525Z,948.00
2022-09-01T12:54:22.394Z,948.00
2022-09-01T12:56:23.395Z,948.00
2022-09-01T12:57:22.356Z,952.00